createdAt,value
2018-01-12T00:02:08.959Z,29.27
2018-01-12T00:04:37.307Z,30.67
2018-01-12T00:07:05.207Z,30.00
2018-01-12T00:09:33.480Z,34.40
2018-01-12T00:12:01.215Z,33.00
2018-01-12T00:14:28.742Z,32.30
2018-01-12T00:16:56.639Z,27.43
2018-01-12T00:19:24.147Z,32.63
2018-01-12T00:21:52.271Z,33.87
2018-01-12T00:24:20.628Z,32.07
2018-01-12T00:26:48.734Z,35.83
2018-01-12T00:29:16.499Z,35.90
2018-01-12T00:31:44.033Z,31.47
2018-01-12T00:34:11.511Z,36.80
2018-01-12T00:36:39.160Z,39.20
2018-01-12T00:39:06.663Z,39.57
2018-01-12T00:41:34.352Z,35.10
2018-01-12T00:44:02.563Z,33.47
2018-01-12T00:46:30.237Z,36.83
2018-01-12T00:48:57.693Z,34.77
2018-01-12T00:51:25.202Z,34.43
2018-01-12T00:53:52.708Z,38.67
2018-01-12T00:56:20.614Z,34.30
2018-01-12T00:58:48.115Z,36.83
2018-01-12T01:01:17.424Z,36.30
2018-01-12T01:03:44.915Z,32.20
2018-01-12T01:06:12.633Z,32.50
2018-01-12T01:08:40.148Z,37.50
2018-01-12T01:11:07.849Z,34.53
2018-01-12T01:13:35.551Z,36.10
2018-01-12T01:16:03.066Z,34.73
2018-01-12T01:18:30.832Z,34.97
2018-01-12T01:20:58.610Z,28.80
2018-01-12T01:23:26.358Z,33.77
2018-01-12T01:25:53.862Z,32.33
2018-01-12T01:28:21.372Z,30.40
2018-01-12T01:30:49.215Z,31.00
2018-01-12T01:33:16.800Z,32.97
2018-01-12T01:35:44.310Z,26.83
2018-01-12T01:38:11.820Z,29.70
2018-01-12T01:40:39.406Z,27.17
2018-01-12T01:43:06.919Z,27.07
2018-01-12T01:45:34.909Z,30.03
2018-01-12T01:48:02.412Z,29.73
2018-01-12T01:50:29.927Z,23.40
2018-01-12T01:52:59.211Z,28.23
2018-01-12T01:55:26.839Z,26.63
2018-01-12T01:57:54.347Z,28.50
2018-01-12T02:00:22.818Z,25.67
2018-01-12T02:02:50.675Z,31.23
2018-01-12T02:05:18.338Z,27.97
2018-01-12T02:07:46.300Z,29.27
2018-01-12T02:10:13.837Z,31.40
2018-01-12T02:12:42.425Z,27.87
2018-01-12T02:15:09.914Z,26.87
2018-01-12T02:17:37.511Z,29.53
2018-01-12T02:20:05.204Z,38.43
2018-01-12T02:22:32.711Z,30.33
2018-01-12T02:25:00.213Z,24.70
2018-01-12T02:27:27.728Z,23.57
2018-01-12T02:29:55.359Z,21.90
2018-01-12T02:32:23.440Z,18.47
2018-01-12T02:34:50.962Z,17.10
2018-01-12T02:37:18.450Z,20.13
2018-01-12T02:39:46.111Z,19.60
2018-01-12T02:42:13.638Z,17.90
2018-01-12T02:44:41.131Z,16.83
2018-01-12T02:47:08.649Z,21.40
2018-01-12T02:49:36.542Z,22.00
2018-01-12T02:52:04.087Z,26.43
2018-01-12T02:54:31.743Z,21.57
2018-01-12T02:57:00.422Z,20.00
2018-01-12T02:59:28.527Z,28.80
2018-01-12T03:01:56.919Z,23.27
2018-01-12T03:04:26.247Z,21.47
2018-01-12T03:06:53.968Z,26.50
2018-01-12T03:09:21.589Z,26.20
2018-01-12T03:11:49.104Z,24.77
2018-01-12T03:14:17.002Z,27.60
2018-01-12T03:16:45.316Z,28.97
2018-01-12T03:19:13.150Z,29.90
2018-01-12T03:21:40.660Z,30.03
2018-01-12T03:24:08.166Z,28.23
2018-01-12T03:26:35.667Z,30.33
2018-01-12T03:29:03.240Z,33.03
2018-01-12T03:31:30.730Z,32.20
2018-01-12T03:33:58.438Z,36.53
2018-01-12T03:36:25.974Z,36.57
2018-01-12T03:38:53.476Z,38.17
2018-01-12T03:41:21.119Z,37.63
2018-01-12T03:43:48.832Z,41.70
2018-01-12T03:46:16.963Z,47.80
2018-01-12T03:48:44.474Z,52.07
2018-01-12T03:51:12.374Z,49.93
2018-01-12T03:53:39.883Z,51.83
2018-01-12T03:56:07.699Z,51.43
2018-01-12T03:58:35.463Z,50.63
2018-01-12T04:01:03.537Z,61.00
2018-01-12T04:03:31.072Z,57.57
2018-01-12T04:05:58.751Z,49.20
2018-01-12T04:08:26.828Z,63.53
2018-01-12T04:10:54.757Z,68.77
2018-01-12T04:13:22.328Z,59.57
2018-01-12T04:15:50.395Z,65.70
2018-01-12T04:18:17.892Z,67.90
2018-01-12T04:20:45.419Z,77.73
2018-01-12T04:23:13.099Z,80.73
2018-01-12T04:25:41.013Z,80.67
2018-01-12T04:28:09.544Z,76.73
2018-01-12T04:30:37.051Z,73.57
2018-01-12T04:33:04.955Z,73.20
2018-01-12T04:35:32.532Z,69.67
2018-01-12T04:38:00.299Z,81.73
2018-01-12T04:40:28.059Z,78.77
2018-01-12T04:42:55.560Z,78.93
2018-01-12T04:45:23.291Z,70.93
2018-01-12T04:47:50.791Z,81.17
2018-01-12T04:50:18.476Z,74.10
2018-01-12T04:52:45.975Z,90.37
2018-01-12T04:55:13.595Z,87.93
2018-01-12T04:57:41.152Z,87.70
2018-01-12T05:00:08.682Z,83.50
2018-01-12T05:02:36.578Z,94.57
2018-01-12T05:05:04.174Z,87.27
2018-01-12T05:07:31.696Z,91.50
2018-01-12T05:09:59.200Z,98.67
2018-01-12T05:12:27.601Z,94.30
2018-01-12T05:14:55.943Z,108.07
2018-01-12T05:17:23.569Z,100.47
2018-01-12T05:19:51.072Z,91.07
2018-01-12T05:22:18.818Z,102.17
2018-01-12T05:24:46.319Z,103.30
2018-01-12T05:27:14.040Z,93.27
2018-01-12T05:29:41.540Z,103.23
2018-01-12T05:32:09.556Z,96.67
2018-01-12T05:34:37.171Z,96.10
2018-01-12T05:37:04.814Z,104.83
2018-01-12T05:39:32.830Z,99.87
2018-01-12T05:42:00.343Z,105.50
2018-01-12T05:44:28.111Z,87.40
2018-01-12T05:46:56.027Z,107.53
2018-01-12T05:49:23.603Z,107.40
2018-01-12T05:51:51.363Z,100.00
2018-01-12T05:54:18.863Z,91.00
2018-01-12T05:56:46.761Z,91.40
2018-01-12T05:59:14.274Z,83.20
2018-01-12T06:01:53.562Z,91.27
2018-01-12T06:04:33.423Z,90.27
2018-01-12T06:07:00.958Z,89.27
2018-01-12T06:09:28.871Z,108.20
2018-01-12T06:11:56.830Z,88.57
2018-01-12T06:14:24.883Z,89.63
2018-01-12T06:16:52.628Z,90.37
2018-01-12T06:19:20.411Z,78.80
2018-01-12T06:21:48.209Z,98.30
2018-01-12T06:24:15.728Z,93.87
2018-01-12T06:26:43.402Z,77.83
2018-01-12T06:29:11.160Z,74.20
2018-01-12T06:31:38.663Z,75.33
2018-01-12T06:34:06.388Z,71.07
2018-01-12T06:36:34.283Z,68.00
2018-01-12T06:39:02.142Z,73.93
2018-01-12T06:41:29.651Z,77.03
2018-01-12T06:43:57.162Z,72.73
2018-01-12T06:46:24.672Z,66.07
2018-01-12T06:48:53.231Z,70.27
2018-01-12T06:51:20.843Z,70.57
2018-01-12T06:53:48.368Z,64.17
2018-01-12T06:56:15.882Z,73.90
2018-01-12T06:58:44.140Z,64.90
2018-01-12T07:01:11.651Z,68.00
2018-01-12T07:03:40.233Z,68.37
2018-01-12T07:06:07.929Z,79.20
2018-01-12T07:08:35.695Z,74.57
2018-01-12T07:11:03.224Z,81.63
2018-01-12T07:13:30.908Z,71.57
2018-01-12T07:15:58.672Z,90.03
2018-01-12T07:18:26.171Z,84.33
2018-01-12T07:21:05.871Z,88.13
2018-01-12T07:23:53.235Z,88.93
2018-01-12T07:26:20.742Z,80.27
2018-01-12T07:28:48.247Z,83.47
2018-01-12T07:31:16.280Z,92.73
2018-01-12T07:33:44.591Z,100.47
2018-01-12T07:36:12.092Z,95.67
2018-01-12T07:38:39.600Z,103.60
2018-01-12T07:41:07.333Z,88.37
2018-01-12T07:43:35.398Z,96.13
2018-01-12T07:46:03.307Z,101.27
2018-01-12T07:48:31.579Z,89.40
2018-01-12T07:50:59.615Z,92.77
2018-01-12T07:53:27.992Z,87.27
2018-01-12T07:55:55.629Z,112.30
2018-01-12T07:58:23.122Z,117.77
2018-01-12T08:00:56.255Z,91.17
2018-01-12T08:03:23.935Z,88.70
2018-01-12T08:05:52.014Z,88.90
2018-01-12T08:08:20.099Z,97.87
2018-01-12T08:10:47.606Z,101.57
2018-01-12T08:13:15.939Z,104.27
2018-01-12T08:15:43.449Z,108.30
2018-01-12T08:18:11.123Z,103.67
2018-01-12T08:20:38.929Z,108.43
2018-01-12T08:23:06.415Z,110.67
2018-01-12T08:25:34.142Z,111.47
2018-01-12T08:28:02.366Z,135.23
2018-01-12T08:30:30.893Z,107.70
2018-01-12T08:32:58.398Z,129.20
2018-01-12T08:35:26.405Z,121.43
2018-01-12T08:37:54.019Z,133.20
2018-01-12T08:40:22.051Z,123.13
2018-01-12T08:42:50.386Z,111.73
2018-01-12T08:45:17.892Z,113.23
2018-01-12T08:47:45.403Z,107.97
2018-01-12T08:50:13.683Z,104.27
2018-01-12T08:52:41.427Z,121.10
2018-01-12T08:55:08.929Z,122.50
2018-01-12T08:57:36.429Z,121.60
2018-01-12T09:00:03.939Z,119.73
2018-01-12T09:02:31.519Z,123.27
2018-01-12T09:05:00.517Z,123.70
2018-01-12T09:07:28.046Z,105.37
2018-01-12T09:09:55.562Z,107.43
2018-01-12T09:12:23.835Z,94.83
2018-01-12T09:14:52.968Z,99.17
2018-01-12T09:17:32.391Z,112.70
2018-01-12T09:20:11.746Z,112.37
2018-01-12T09:22:47.740Z,104.17
2018-01-12T09:25:26.527Z,117.33
2018-01-12T09:27:54.310Z,98.63
2018-01-12T09:30:22.692Z,108.20
2018-01-12T09:32:50.202Z,103.53
2018-01-12T09:35:17.915Z,99.00
2018-01-12T09:37:45.424Z,103.90
2018-01-12T09:40:24.425Z,120.20
2018-01-12T09:42:51.954Z,116.60
2018-01-12T09:45:19.720Z,115.70
2018-01-12T09:47:57.023Z,101.83
2018-01-12T09:50:24.779Z,110.47
2018-01-12T09:52:52.527Z,105.70
2018-01-12T09:55:20.296Z,106.80
2018-01-12T09:57:48.482Z,104.13
2018-01-12T10:00:27.681Z,115.50
2018-01-12T10:02:55.185Z,114.17
2018-01-12T10:05:22.720Z,120.87
2018-01-12T10:08:11.881Z,102.90
2018-01-12T10:10:39.411Z,104.67
2018-01-12T10:13:07.008Z,110.17
2018-01-12T10:15:34.643Z,109.97
2018-01-12T10:18:17.171Z,116.87
2018-01-12T10:20:44.930Z,115.20
2018-01-12T10:23:12.694Z,94.67
2018-01-12T10:25:40.207Z,124.77
2018-01-12T10:28:07.727Z,107.17
2018-01-12T10:33:59.740Z,108.40
2018-01-12T10:37:01.675Z,96.37
2018-01-12T10:39:29.950Z,111.47
2018-01-12T10:42:05.154Z,109.70
2018-01-12T10:44:32.782Z,103.20
2018-01-12T10:47:15.894Z,113.60
2018-01-12T10:49:55.974Z,109.70
2018-01-12T10:52:35.426Z,111.50
2018-01-12T10:55:03.277Z,111.00
2018-01-12T10:57:30.951Z,109.77
2018-01-12T10:59:58.451Z,98.07
2018-01-12T11:02:26.161Z,98.03
2018-01-12T11:04:54.444Z,113.13
2018-01-12T11:07:22.339Z,92.80
2018-01-12T11:09:50.073Z,87.50
2018-01-12T11:12:17.576Z,98.20
2018-01-12T11:14:45.315Z,123.03
2018-01-12T11:17:13.219Z,103.30
2018-01-12T11:19:41.694Z,142.90
2018-01-12T11:22:09.511Z,113.23
2018-01-12T11:24:37.263Z,112.70
2018-01-12T11:27:05.279Z,111.67
2018-01-12T11:29:32.797Z,106.80
2018-01-12T11:32:00.351Z,105.67
2018-01-12T11:34:29.018Z,107.77
2018-01-12T11:36:56.526Z,98.77
2018-01-12T11:39:24.163Z,110.60
2018-01-12T11:41:52.036Z,115.27
2018-01-12T11:44:19.650Z,105.73
2018-01-12T11:46:47.150Z,117.97
2018-01-12T11:49:15.070Z,104.23
2018-01-12T11:51:42.568Z,103.87
2018-01-12T11:54:11.038Z,107.87
2018-01-12T11:56:38.538Z,103.57
2018-01-12T11:59:06.079Z,98.23
2018-01-12T12:01:33.691Z,94.77
2018-01-12T12:04:01.191Z,104.13
2018-01-12T12:06:28.946Z,100.47
2018-01-12T12:08:56.458Z,95.77
2018-01-12T12:11:23.975Z,103.67
2018-01-12T12:13:51.489Z,95.70
2018-01-12T12:16:18.979Z,94.80
2018-01-12T12:18:47.423Z,88.60
2018-01-12T12:21:15.646Z,82.90
2018-01-12T12:23:43.292Z,80.23
2018-01-12T12:26:10.796Z,96.70
2018-01-12T12:28:38.299Z,95.57
2018-01-12T12:31:05.815Z,79.90
2018-01-12T12:33:34.151Z,70.53
2018-01-12T12:36:01.800Z,83.97
2018-01-12T12:38:29.303Z,93.20
2018-01-12T12:40:56.811Z,72.03
2018-01-12T12:43:24.444Z,83.13
2018-01-12T12:45:51.950Z,82.10
2018-01-12T12:48:19.691Z,94.80
2018-01-12T12:50:47.448Z,70.80
2018-01-12T12:53:15.459Z,77.90
2018-01-12T12:55:43.734Z,83.33
2018-01-12T12:58:12.281Z,65.37
2018-01-12T13:00:39.787Z,81.87
2018-01-12T13:03:07.496Z,75.23
2018-01-12T13:05:35.391Z,76.50
2018-01-12T13:08:02.903Z,78.57
2018-01-12T13:10:30.483Z,71.17
2018-01-12T13:12:57.979Z,81.73
2018-01-12T13:15:25.604Z,77.87
2018-01-12T13:17:53.163Z,75.63
2018-01-12T13:20:20.620Z,68.73
2018-01-12T13:22:48.378Z,74.67
2018-01-12T13:25:16.138Z,69.23
2018-01-12T13:27:43.675Z,85.00
2018-01-12T13:30:11.183Z,65.67
2018-01-12T13:32:38.678Z,69.10
2018-01-12T13:35:06.251Z,69.83
2018-01-12T13:37:33.781Z,72.83
2018-01-12T13:40:01.467Z,67.97
2018-01-12T13:42:29.169Z,69.77
2018-01-12T13:44:56.731Z,65.27
2018-01-12T13:47:25.746Z,75.40
2018-01-12T13:49:53.250Z,57.70
2018-01-12T13:52:20.957Z,71.77
2018-01-12T13:54:48.705Z,70.30
2018-01-12T13:57:16.227Z,64.27
2018-01-12T13:59:43.923Z,59.10
2018-01-12T14:02:11.675Z,62.40
2018-01-12T14:04:39.446Z,68.83
2018-01-12T14:07:06.955Z,66.13
2018-01-12T14:09:34.471Z,64.70
2018-01-12T14:12:01.976Z,70.97
2018-01-12T14:14:29.490Z,58.10
2018-01-12T14:16:57.004Z,64.40
2018-01-12T14:19:24.519Z,65.47
2018-01-12T14:21:52.003Z,64.83
2018-01-12T14:24:19.563Z,61.43
2018-01-12T14:26:47.182Z,68.47
2018-01-12T14:29:14.933Z,63.67
2018-01-12T14:31:42.433Z,64.03
2018-01-12T14:34:10.144Z,59.40
2018-01-12T14:36:37.908Z,61.60
2018-01-12T14:39:05.411Z,55.57
2018-01-12T14:41:33.137Z,58.07
2018-01-12T14:44:01.511Z,61.57
2018-01-12T14:46:29.003Z,53.57
2018-01-12T14:48:56.638Z,53.40
2018-01-12T14:51:24.910Z,62.20
2018-01-12T14:53:52.528Z,60.07
2018-01-12T14:56:20.332Z,59.90
2018-01-12T14:58:48.087Z,56.27
2018-01-12T15:01:15.850Z,54.80
2018-01-12T15:03:43.614Z,59.50
2018-01-12T15:06:11.381Z,49.30
2018-01-12T15:08:38.875Z,65.87
2018-01-12T15:11:06.383Z,57.73
2018-01-12T15:13:33.884Z,51.97
2018-01-12T15:16:02.444Z,51.93
2018-01-12T15:18:30.192Z,53.33
2018-01-12T15:20:57.963Z,50.40
2018-01-12T15:23:25.495Z,56.20
2018-01-12T15:25:52.967Z,51.27
2018-01-12T15:28:20.511Z,41.40
2018-01-12T15:30:48.087Z,50.97
2018-01-12T15:33:15.638Z,46.03
2018-01-12T15:35:43.315Z,61.57
2018-01-12T15:38:11.079Z,46.73
2018-01-12T15:40:38.583Z,53.40
2018-01-12T15:43:06.303Z,49.33
2018-01-12T15:45:33.794Z,50.20
2018-01-12T15:48:01.526Z,47.47
2018-01-12T15:50:30.074Z,49.63
2018-01-12T15:52:57.655Z,38.97
2018-01-12T15:55:25.173Z,47.53
2018-01-12T15:57:52.683Z,40.93
2018-01-12T16:00:20.179Z,47.77
2018-01-12T16:02:48.448Z,36.50
2018-01-12T16:05:15.951Z,39.57
2018-01-12T16:07:43.630Z,38.57
2018-01-12T16:10:11.127Z,38.40
2018-01-12T16:12:38.638Z,47.80
2018-01-12T16:15:06.300Z,51.00
2018-01-12T16:17:33.799Z,43.50
2018-01-12T16:20:02.123Z,45.70
2018-01-12T16:22:29.735Z,44.50
2018-01-12T16:24:58.284Z,39.37
2018-01-12T16:27:26.658Z,42.17
2018-01-12T16:29:54.398Z,37.77
2018-01-12T16:32:21.895Z,39.77
2018-01-12T16:34:49.412Z,33.10
2018-01-12T16:37:17.051Z,47.77
2018-01-12T16:39:45.171Z,38.13
2018-01-12T16:42:12.672Z,37.20
2018-01-12T16:44:40.347Z,35.53
2018-01-12T16:47:07.859Z,40.00
2018-01-12T16:49:35.589Z,38.10
2018-01-12T16:52:03.089Z,42.37
2018-01-12T16:54:30.826Z,38.83
2018-01-12T16:56:58.327Z,42.73
2018-01-12T16:59:26.063Z,39.10
2018-01-12T17:01:53.566Z,32.23
2018-01-12T17:04:21.079Z,40.20
2018-01-12T17:06:48.739Z,31.83
2018-01-12T17:09:17.759Z,36.60
2018-01-12T17:11:45.484Z,34.30
2018-01-12T17:14:13.254Z,33.40
2018-01-12T17:16:40.782Z,33.40
2018-01-12T17:19:08.279Z,29.53
2018-01-12T17:21:35.945Z,33.10
2018-01-12T17:24:03.456Z,36.17
2018-01-12T17:26:31.120Z,34.90
2018-01-12T17:28:59.010Z,32.80
2018-01-12T17:31:26.672Z,29.43
2018-01-12T17:33:54.180Z,35.40
2018-01-12T17:36:21.887Z,34.63
2018-01-12T17:38:49.395Z,38.20
2018-01-12T17:41:17.084Z,33.00
2018-01-12T17:43:44.871Z,35.73
2018-01-12T17:46:12.373Z,35.47
2018-01-12T17:48:40.091Z,32.23
2018-01-12T17:51:07.855Z,40.87
2018-01-12T17:53:35.623Z,36.13
2018-01-12T17:56:03.687Z,41.10
2018-01-12T17:58:31.459Z,34.70
2018-01-12T18:00:59.808Z,43.07
2018-01-12T18:03:27.317Z,37.30
2018-01-12T18:05:55.633Z,38.40
2018-01-12T18:08:23.695Z,36.77
2018-01-12T18:10:51.206Z,43.80
2018-01-12T18:13:19.058Z,35.00
2018-01-12T18:15:46.706Z,40.10
2018-01-12T18:18:14.661Z,42.13
2018-01-12T18:20:42.159Z,36.17
2018-01-12T18:23:09.677Z,36.67
2018-01-12T18:25:37.184Z,39.30
2018-01-12T18:28:05.447Z,42.50
2018-01-12T18:30:32.991Z,44.70
2018-01-12T18:33:00.487Z,43.47
2018-01-12T18:35:27.991Z,39.17
2018-01-12T18:37:55.895Z,40.40
2018-01-12T18:40:23.812Z,46.20
2018-01-12T18:42:51.307Z,41.20
2018-01-12T18:45:19.022Z,45.53
2018-01-12T18:47:46.527Z,44.63
2018-01-12T18:50:14.058Z,40.53
2018-01-12T18:52:41.547Z,40.30
2018-01-12T18:55:09.069Z,48.87
2018-01-12T18:57:36.859Z,44.57
2018-01-12T19:00:04.360Z,41.40
2018-01-12T19:02:32.079Z,47.60
2018-01-12T19:04:59.687Z,47.80
2018-01-12T19:07:28.227Z,45.47
2018-01-12T19:09:55.983Z,47.13
2018-01-12T19:12:23.946Z,44.77
2018-01-12T19:14:52.151Z,49.40
2018-01-12T19:17:19.669Z,41.63
2018-01-12T19:19:47.155Z,48.77
2018-01-12T19:22:14.678Z,45.13
2018-01-12T19:24:42.224Z,47.40
2018-01-12T19:27:09.731Z,45.00
2018-01-12T19:29:37.250Z,41.23
2018-01-12T19:32:04.912Z,47.23
2018-01-12T19:34:32.402Z,41.57
2018-01-12T19:36:59.928Z,47.67
2018-01-12T19:39:27.571Z,47.77
2018-01-12T19:41:55.092Z,52.13
2018-01-12T19:44:22.578Z,51.00
2018-01-12T19:46:50.087Z,50.77
2018-01-12T19:49:17.979Z,42.03
2018-01-12T19:51:45.612Z,50.50
2018-01-12T19:54:13.268Z,44.80
2018-01-12T19:56:40.763Z,48.33
2018-01-12T19:59:08.271Z,62.90
2018-01-12T20:01:36.435Z,53.70
2018-01-12T20:04:03.947Z,42.90
2018-01-12T20:06:31.467Z,55.77
2018-01-12T20:08:59.235Z,46.43
2018-01-12T20:11:27.003Z,50.63
2018-01-12T20:13:55.224Z,45.93
2018-01-12T20:16:23.756Z,48.40
2018-01-12T20:18:51.519Z,74.53
2018-01-12T20:21:19.284Z,52.20
2018-01-12T20:23:47.558Z,49.83
2018-01-12T20:26:15.127Z,57.77
2018-01-12T20:28:42.631Z,56.77
2018-01-12T20:31:10.133Z,55.13
2018-01-12T20:33:38.238Z,56.00
2018-01-12T20:36:06.507Z,52.70
2018-01-12T20:38:34.247Z,51.33
2018-01-12T20:41:01.743Z,52.40
2018-01-12T20:43:29.492Z,60.80
2018-01-12T20:45:57.537Z,53.73
2018-01-12T20:48:25.608Z,47.00
2018-01-12T20:50:53.719Z,56.03
2018-01-12T20:53:21.621Z,56.83
2018-01-12T20:55:49.527Z,53.57
2018-01-12T20:58:17.043Z,51.77
2018-01-12T21:00:45.039Z,43.27
2018-01-12T21:03:13.123Z,53.43
2018-01-12T21:05:40.648Z,46.10
2018-01-12T21:08:08.152Z,49.73
2018-01-12T21:10:35.661Z,54.00
2018-01-12T21:13:03.256Z,52.03
2018-01-12T21:15:30.779Z,44.70
2018-01-12T21:17:58.342Z,48.30
2018-01-12T21:20:26.361Z,51.00
2018-01-12T21:22:53.995Z,47.33
2018-01-12T21:25:21.518Z,55.70
2018-01-12T21:27:49.015Z,45.20
2018-01-12T21:30:16.580Z,49.50
2018-01-12T21:32:44.100Z,53.83
2018-01-12T21:35:11.603Z,46.60
2018-01-12T21:37:39.498Z,52.27
2018-01-12T21:40:07.406Z,44.87
2018-01-12T21:42:34.918Z,50.27
2018-01-12T21:45:02.608Z,51.87
2018-01-12T21:47:30.399Z,50.40
2018-01-12T21:49:57.906Z,54.30
2018-01-12T21:52:25.619Z,51.90
2018-01-12T21:54:53.751Z,51.87
2018-01-12T21:57:21.257Z,45.27
2018-01-12T21:59:48.906Z,52.87
2018-01-12T22:02:16.414Z,46.93
2018-01-12T22:04:43.923Z,48.50
2018-01-12T22:07:11.677Z,50.20
2018-01-12T22:09:39.351Z,45.77
2018-01-12T22:12:06.859Z,46.43
2018-01-12T22:14:34.363Z,46.70
2018-01-12T22:17:02.276Z,44.67
2018-01-12T22:19:29.770Z,47.03
2018-01-12T22:21:57.284Z,49.33
2018-01-12T22:24:25.006Z,81.43
2018-01-12T22:26:52.771Z,54.67
2018-01-12T22:29:20.531Z,49.83
2018-01-12T22:31:48.431Z,47.80
2018-01-12T22:34:15.944Z,46.27
2018-01-12T22:36:43.460Z,48.80
2018-01-12T22:39:10.962Z,44.27
2018-01-12T22:41:38.474Z,45.40
2018-01-12T22:44:06.699Z,57.87
2018-01-12T22:46:34.232Z,48.07
2018-01-12T22:49:01.731Z,49.80
2018-01-12T22:51:29.235Z,48.93
2018-01-12T22:53:56.989Z,45.73
2018-01-12T22:56:24.707Z,40.40
2018-01-12T22:58:52.219Z,50.17
2018-01-12T23:01:19.734Z,54.90
2018-01-12T23:03:47.387Z,54.63
2018-01-12T23:06:16.143Z,50.07
2018-01-12T23:08:43.828Z,49.80
2018-01-12T23:11:11.545Z,52.33
2018-01-12T23:13:39.967Z,47.70
2018-01-12T23:16:07.463Z,50.20
2018-01-12T23:18:34.970Z,45.87
2018-01-12T23:21:03.263Z,48.80
2018-01-12T23:23:30.775Z,52.67
2018-01-12T23:25:59.112Z,46.47
2018-01-12T23:28:26.618Z,47.80
2018-01-12T23:30:54.331Z,45.30
2018-01-12T23:33:22.779Z,55.00
2018-01-12T23:35:50.460Z,41.83
2018-01-12T23:38:17.996Z,47.90
2018-01-12T23:40:45.652Z,43.67
2018-01-12T23:43:13.156Z,43.10
2018-01-12T23:45:40.899Z,47.10
2018-01-12T23:48:09.256Z,47.30
2018-01-12T23:50:36.752Z,48.57
2018-01-12T23:53:04.372Z,47.23
2018-01-12T23:55:32.274Z,44.40
2018-01-12T23:57:59.795Z,47.77
